createdAt,value
2022-09-26T00:01:07.609Z,13.89
2022-09-26T00:04:05.279Z,13.88
2022-09-26T00:07:02.695Z,13.89
2022-09-26T00:10:00.106Z,13.88
2022-09-26T00:12:57.573Z,13.88
2022-09-26T00:15:55.014Z,13.86
2022-09-26T00:18:52.429Z,13.83
2022-09-26T00:21:50.085Z,13.82
2022-09-26T00:24:47.542Z,13.79
2022-09-26T00:27:45.003Z,13.76
2022-09-26T00:30:42.503Z,13.75
2022-09-26T00:33:40.067Z,13.72
2022-09-26T00:36:38.885Z,13.73
2022-09-26T00:39:36.562Z,13.71
2022-09-26T00:42:33.995Z,13.69
2022-09-26T00:45:31.478Z,13.68
2022-09-26T00:48:28.916Z,13.67
2022-09-26T00:51:26.353Z,13.65
2022-09-26T00:54:23.792Z,13.62
2022-09-26T00:57:21.230Z,13.61
2022-09-26T01:00:18.660Z,13.60
2022-09-26T01:03:16.556Z,13.59
2022-09-26T01:06:15.441Z,13.58
2022-09-26T01:09:13.082Z,13.57
2022-09-26T01:12:10.874Z,13.56
2022-09-26T01:15:09.278Z,13.55
2022-09-26T01:18:07.670Z,13.54
2022-09-26T01:21:05.115Z,13.56
2022-09-26T01:24:02.543Z,13.56
2022-09-26T01:26:59.940Z,13.58
2022-09-26T01:29:57.369Z,13.58
2022-09-26T01:32:54.824Z,13.57
2022-09-26T01:35:52.258Z,13.57
2022-09-26T01:38:49.698Z,13.56
2022-09-26T01:41:47.145Z,13.55
2022-09-26T01:44:44.607Z,13.55
2022-09-26T01:47:42.055Z,13.55
2022-09-26T01:50:39.473Z,13.56
2022-09-26T01:53:36.887Z,13.56
2022-09-26T01:56:34.323Z,13.56
2022-09-26T01:59:31.740Z,13.56
2022-09-26T02:02:29.225Z,13.57
2022-09-26T02:05:26.738Z,13.59
2022-09-26T02:08:25.187Z,13.58
2022-09-26T02:11:22.589Z,13.60
2022-09-26T02:14:20.040Z,13.59
2022-09-26T02:17:17.458Z,13.59
2022-09-26T02:20:15.085Z,13.57
2022-09-26T02:23:12.511Z,13.56
2022-09-26T02:26:09.974Z,13.56
2022-09-26T02:29:07.996Z,13.54
2022-09-26T02:32:06.031Z,13.53
2022-09-26T02:35:23.559Z,13.53
2022-09-26T02:38:20.985Z,13.53
2022-09-26T02:41:19.060Z,13.53
2022-09-26T02:44:16.540Z,13.52
2022-09-26T02:47:13.994Z,13.51
2022-09-26T02:50:11.412Z,13.51
2022-09-26T02:53:08.929Z,13.51
2022-09-26T02:56:06.375Z,13.51
2022-09-26T02:59:03.799Z,13.52
2022-09-26T03:02:01.551Z,13.52
2022-09-26T03:04:59.195Z,13.52
2022-09-26T03:07:57.626Z,13.52
2022-09-26T03:10:56.070Z,13.51
2022-09-26T03:13:53.515Z,13.51
2022-09-26T03:16:51.012Z,13.51
2022-09-26T03:19:48.483Z,13.51
2022-09-26T03:22:45.909Z,13.50
2022-09-26T03:25:43.324Z,13.51
2022-09-26T03:28:41.534Z,13.52
2022-09-26T03:31:39.010Z,13.52
2022-09-26T03:34:39.729Z,13.52
2022-09-26T03:37:37.619Z,13.53
2022-09-26T03:40:35.139Z,13.53
2022-09-26T03:43:32.681Z,13.53
2022-09-26T03:46:30.186Z,13.54
2022-09-26T03:49:27.608Z,13.54
2022-09-26T03:52:25.846Z,13.54
2022-09-26T03:55:23.288Z,13.55
2022-09-26T03:58:20.741Z,13.56
2022-09-26T04:01:18.298Z,13.59
2022-09-26T04:04:16.670Z,13.58
2022-09-26T04:07:15.219Z,13.59
2022-09-26T04:10:12.638Z,13.59
2022-09-26T04:13:10.049Z,13.59
2022-09-26T04:16:07.668Z,13.57
2022-09-26T04:19:05.279Z,13.55
2022-09-26T04:22:02.694Z,13.54
2022-09-26T04:25:01.241Z,13.53
2022-09-26T04:27:59.445Z,13.52
2022-09-26T04:30:56.860Z,13.50
2022-09-26T04:33:55.272Z,13.51
2022-09-26T04:36:52.714Z,13.52
2022-09-26T04:39:50.141Z,13.52
2022-09-26T04:42:47.590Z,13.51
2022-09-26T04:45:45.046Z,13.52
2022-09-26T04:48:42.641Z,13.52
2022-09-26T04:51:40.105Z,13.52
2022-09-26T04:54:39.207Z,13.52
2022-09-26T04:57:38.204Z,13.53
2022-09-26T05:00:35.675Z,13.53
2022-09-26T05:03:33.124Z,13.54
2022-09-26T05:06:30.543Z,13.56
2022-09-26T05:09:29.896Z,13.58
2022-09-26T05:12:29.330Z,13.62
2022-09-26T05:15:26.750Z,13.65
2022-09-26T05:18:24.561Z,13.69
2022-09-26T05:21:22.012Z,13.72
2022-09-26T05:24:37.281Z,13.74
2022-09-26T05:27:34.717Z,13.74
2022-09-26T05:30:32.214Z,13.75
2022-09-26T05:33:29.720Z,13.75
2022-09-26T05:36:27.127Z,13.75
2022-09-26T05:39:42.843Z,13.75
2022-09-26T05:42:40.421Z,13.75
2022-09-26T05:45:37.859Z,13.77
2022-09-26T05:48:35.340Z,13.79
2022-09-26T05:55:05.973Z,13.87
2022-09-26T05:58:03.427Z,13.93
2022-09-26T06:01:00.909Z,13.98
2022-09-26T06:03:58.380Z,14.04
2022-09-26T06:06:55.883Z,14.08
2022-09-26T06:09:53.361Z,14.15
2022-09-26T06:12:51.285Z,14.19
2022-09-26T06:15:50.089Z,14.25
2022-09-26T06:18:48.091Z,14.30
2022-09-26T06:21:45.512Z,14.38
2022-09-26T06:24:42.926Z,14.48
2022-09-26T06:27:40.356Z,14.56
2022-09-26T06:30:37.805Z,14.64
2022-09-26T06:33:35.225Z,14.71
2022-09-26T06:36:32.739Z,14.79
2022-09-26T06:39:35.803Z,15.16
2022-09-26T06:42:37.994Z,15.53
2022-09-26T06:45:36.434Z,15.60
2022-09-26T06:48:33.865Z,15.61
2022-09-26T06:51:32.080Z,15.62
2022-09-26T06:54:29.507Z,15.65
2022-09-26T06:57:27.117Z,15.66
2022-09-26T07:00:24.998Z,15.69
2022-09-26T07:03:26.768Z,15.79
2022-09-26T07:06:24.601Z,15.84
2022-09-26T07:09:22.003Z,15.87
2022-09-26T07:12:19.677Z,15.89
2022-09-26T07:15:17.082Z,15.98
2022-09-26T07:18:14.503Z,16.22
2022-09-26T07:21:11.934Z,16.42
2022-09-26T07:24:14.128Z,16.68
2022-09-26T07:27:11.831Z,16.92
2022-09-26T07:30:09.607Z,17.11
2022-09-26T07:33:07.051Z,17.24
2022-09-26T07:36:05.675Z,17.33
2022-09-26T07:39:03.414Z,17.33
2022-09-26T07:42:04.327Z,17.25
2022-09-26T07:45:24.290Z,17.14
2022-09-26T07:48:51.215Z,17.08
2022-09-26T07:51:49.849Z,17.06
2022-09-26T07:54:47.589Z,17.06
2022-09-26T07:57:49.611Z,17.08
2022-09-26T08:00:47.047Z,17.06
2022-09-26T08:03:44.496Z,17.16
2022-09-26T08:06:41.941Z,17.43
2022-09-26T08:09:39.383Z,18.69
2022-09-26T08:12:36.819Z,19.80
2022-09-26T08:15:34.256Z,19.99
2022-09-26T08:18:31.672Z,19.59
2022-09-26T08:21:29.123Z,19.22
2022-09-26T08:24:26.561Z,18.92
2022-09-26T08:27:23.989Z,18.63
2022-09-26T08:30:23.819Z,18.45
2022-09-26T08:33:23.603Z,18.27
2022-09-26T08:36:21.697Z,18.07
2022-09-26T08:39:19.220Z,17.93
2022-09-26T08:42:18.239Z,17.83
2022-09-26T08:45:29.521Z,17.98
2022-09-26T08:48:27.907Z,18.55
2022-09-26T08:51:29.022Z,18.69
2022-09-26T08:54:26.872Z,18.70
2022-09-26T08:57:24.285Z,20.23
2022-09-26T09:00:21.755Z,22.56
2022-09-26T09:03:19.208Z,23.09
2022-09-26T09:06:16.667Z,22.70
2022-09-26T09:09:14.118Z,22.23
2022-09-26T09:12:11.564Z,21.77
2022-09-26T09:15:24.718Z,21.31
2022-09-26T09:18:24.518Z,20.97
2022-09-26T09:21:22.024Z,20.71
2022-09-26T09:24:19.446Z,20.48
2022-09-26T09:30:34.299Z,20.52
2022-09-26T09:33:31.775Z,20.78
2022-09-26T09:36:29.195Z,22.17
2022-09-26T09:39:26.642Z,24.44
2022-09-26T09:42:24.079Z,27.32
2022-09-26T09:45:21.489Z,30.09
2022-09-26T09:48:18.928Z,32.12
2022-09-26T09:51:16.370Z,33.64
2022-09-26T09:54:13.841Z,33.84
2022-09-26T09:57:11.303Z,34.03
2022-09-26T10:00:08.776Z,35.08
2022-09-26T10:03:07.619Z,35.18
2022-09-26T10:06:05.106Z,34.54
2022-09-26T10:09:35.789Z,32.63
2022-09-26T10:12:28.647Z,31.08
2022-09-26T10:15:27.523Z,30.63
2022-09-26T10:18:26.404Z,30.93
2022-09-26T10:21:25.253Z,30.84
2022-09-26T10:24:24.104Z,31.16
2022-09-26T10:27:22.794Z,30.72
2022-09-26T10:30:20.237Z,29.53
2022-09-26T10:33:17.664Z,28.31
2022-09-26T10:36:16.821Z,27.44
2022-09-26T10:39:32.190Z,26.68
2022-09-26T10:42:32.330Z,25.99
2022-09-26T10:45:30.205Z,25.80
2022-09-26T10:48:27.754Z,25.86
2022-09-26T10:51:25.180Z,26.13
2022-09-26T10:54:23.182Z,26.05
2022-09-26T10:57:20.629Z,25.59
2022-09-26T11:00:18.042Z,25.22
2022-09-26T11:03:15.537Z,25.00
2022-09-26T11:06:13.011Z,24.95
2022-09-26T11:09:11.391Z,24.88
2022-09-26T11:12:08.861Z,24.80
2022-09-26T11:15:06.303Z,25.17
2022-09-26T11:18:04.175Z,25.14
2022-09-26T11:21:01.832Z,24.69
2022-09-26T11:23:59.619Z,24.29
2022-09-26T11:26:57.054Z,23.99
2022-09-26T11:29:55.774Z,23.67
2022-09-26T11:32:54.525Z,23.47
2022-09-26T11:35:53.133Z,23.38
2022-09-26T11:38:50.861Z,23.33
2022-09-26T11:41:48.955Z,23.28
2022-09-26T11:44:46.382Z,23.14
2022-09-26T11:47:43.790Z,23.00
2022-09-26T11:50:41.226Z,22.96
2022-09-26T11:53:40.028Z,22.86
2022-09-26T11:56:38.104Z,22.76
2022-09-26T11:59:36.383Z,22.63
2022-09-26T12:02:34.016Z,22.50
2022-09-26T12:05:31.654Z,22.48
2022-09-26T12:08:30.289Z,22.40
2022-09-26T12:11:27.723Z,22.23
2022-09-26T12:14:25.305Z,22.10
2022-09-26T12:17:23.188Z,22.05
2022-09-26T12:20:20.608Z,22.02
2022-09-26T12:23:18.007Z,22.02
2022-09-26T12:26:15.485Z,22.06
2022-09-26T12:29:12.902Z,22.08
2022-09-26T12:32:14.700Z,22.03
2022-09-26T12:35:12.239Z,21.99
2022-09-26T12:38:09.671Z,21.95
2022-09-26T12:41:07.101Z,21.89
2022-09-26T12:44:04.658Z,21.87
2022-09-26T12:47:02.165Z,21.96
2022-09-26T12:49:59.591Z,22.01
2022-09-26T12:52:57.031Z,22.05
2022-09-26T12:55:54.467Z,22.05
2022-09-26T12:58:51.908Z,22.03
2022-09-26T13:01:50.268Z,22.03
2022-09-26T13:04:48.165Z,22.04
2022-09-26T13:07:45.649Z,22.01
2022-09-26T13:10:43.077Z,21.99
2022-09-26T13:13:40.558Z,21.95
2022-09-26T13:16:37.994Z,21.92
2022-09-26T13:19:35.545Z,21.90
2022-09-26T13:22:34.547Z,21.85
2022-09-26T13:25:32.313Z,21.92
2022-09-26T13:28:29.737Z,22.07
2022-09-26T13:31:31.820Z,22.24
2022-09-26T13:34:30.007Z,22.42
2022-09-26T13:37:28.725Z,22.49
2022-09-26T13:40:33.731Z,22.57
2022-09-26T13:43:32.301Z,22.63
2022-09-26T13:46:29.831Z,22.82
2022-09-26T13:49:27.317Z,22.97
2022-09-26T13:52:24.770Z,23.13
2022-09-26T13:55:22.181Z,23.28
2022-09-26T13:58:20.149Z,23.39
2022-09-26T14:01:18.265Z,23.54
2022-09-26T14:04:16.493Z,23.67
2022-09-26T14:07:27.814Z,23.67
2022-09-26T14:10:25.248Z,23.66
2022-09-26T14:13:22.717Z,23.57
2022-09-26T14:16:20.874Z,23.31
2022-09-26T14:19:18.455Z,23.02
2022-09-26T14:22:15.880Z,22.76
2022-09-26T14:25:13.561Z,22.84
2022-09-26T14:28:12.684Z,23.11
2022-09-26T14:31:11.375Z,23.41
2022-09-26T14:34:08.896Z,23.55
2022-09-26T14:37:06.353Z,23.57
2022-09-26T14:40:04.385Z,23.58
2022-09-26T14:43:01.823Z,23.36
2022-09-26T14:45:59.339Z,23.24
2022-09-26T14:48:56.807Z,23.22
2022-09-26T14:51:54.237Z,23.14
2022-09-26T14:54:51.677Z,23.07
2022-09-26T14:57:49.159Z,22.90
2022-09-26T15:00:46.566Z,22.70
2022-09-26T15:03:44.038Z,22.47
2022-09-26T15:06:41.414Z,22.24
2022-09-26T15:09:38.853Z,22.01
2022-09-26T15:12:39.248Z,21.79
2022-09-26T15:15:36.950Z,21.58
2022-09-26T15:18:35.069Z,21.40
2022-09-26T15:21:34.374Z,21.23
2022-09-26T15:24:33.089Z,21.07
2022-09-26T15:27:31.873Z,20.92
2022-09-26T15:30:29.401Z,20.76
2022-09-26T15:33:26.845Z,20.60
2022-09-26T15:36:24.286Z,20.45
2022-09-26T15:39:21.710Z,20.30
2022-09-26T15:42:36.826Z,20.16
2022-09-26T15:45:34.287Z,20.03
2022-09-26T15:48:32.824Z,19.95
2022-09-26T15:51:30.261Z,19.87
2022-09-26T15:54:27.691Z,19.81
2022-09-26T15:57:25.153Z,19.75
2022-09-26T16:00:22.564Z,19.72
2022-09-26T16:03:20.015Z,19.70
2022-09-26T16:06:17.474Z,19.63
2022-09-26T16:09:14.911Z,19.56
2022-09-26T16:12:15.158Z,19.48
2022-09-26T16:15:13.635Z,19.39
2022-09-26T16:18:11.078Z,19.29
2022-09-26T16:21:08.514Z,19.22
2022-09-26T16:24:05.931Z,19.13
2022-09-26T16:27:03.890Z,19.02
2022-09-26T16:30:05.116Z,18.87
2022-09-26T16:33:03.062Z,18.73
2022-09-26T16:36:00.478Z,18.60
2022-09-26T16:38:57.902Z,18.50
2022-09-26T16:42:01.914Z,18.37
2022-09-26T16:45:00.560Z,18.24
2022-09-26T16:47:57.991Z,18.10
2022-09-26T16:50:55.422Z,17.97
2022-09-26T16:53:53.420Z,17.82
2022-09-26T16:56:51.689Z,17.69
2022-09-26T16:59:49.125Z,17.58
2022-09-26T17:02:46.618Z,17.46
2022-09-26T17:05:44.064Z,17.32
2022-09-26T17:08:41.870Z,17.22
2022-09-26T17:11:39.288Z,17.13
2022-09-26T17:14:40.378Z,17.04
2022-09-26T17:17:38.436Z,16.93
2022-09-26T17:20:35.892Z,16.82
2022-09-26T17:23:42.043Z,16.73
2022-09-26T17:26:39.976Z,16.64
2022-09-26T17:29:38.064Z,16.57
2022-09-26T17:32:35.964Z,16.50
2022-09-26T17:35:33.434Z,16.43
2022-09-26T17:38:32.203Z,16.37
2022-09-26T17:41:34.550Z,16.31
2022-09-26T17:44:32.895Z,16.27
2022-09-26T17:47:30.516Z,16.24
2022-09-26T17:50:29.198Z,16.22
2022-09-26T17:53:26.787Z,16.20
2022-09-26T17:56:26.390Z,16.16
2022-09-26T17:59:23.878Z,16.14
2022-09-26T18:02:24.483Z,16.09
2022-09-26T18:05:22.011Z,16.05
2022-09-26T18:08:19.432Z,16.01
2022-09-26T18:11:16.914Z,15.94
2022-09-26T18:14:15.625Z,15.86
2022-09-26T18:17:13.427Z,15.80
2022-09-26T18:20:11.262Z,15.71
2022-09-26T18:23:09.128Z,15.64
2022-09-26T18:26:07.671Z,15.61
2022-09-26T18:29:08.541Z,15.58
2022-09-26T18:32:06.805Z,15.58
2022-09-26T18:35:04.362Z,15.57
2022-09-26T18:38:01.785Z,15.55
2022-09-26T18:40:59.418Z,15.54
2022-09-26T18:43:57.008Z,15.51
2022-09-26T18:46:58.245Z,15.45
2022-09-26T18:49:58.511Z,15.41
2022-09-26T18:52:56.091Z,15.39
2022-09-26T18:56:11.263Z,15.37
2022-09-26T18:59:10.411Z,15.35
2022-09-26T19:02:08.311Z,15.31
2022-09-26T19:05:06.049Z,15.28
2022-09-26T19:08:04.459Z,15.25
2022-09-26T19:11:04.133Z,15.23
2022-09-26T19:14:01.827Z,15.21
2022-09-26T19:16:59.485Z,15.17
2022-09-26T19:19:57.390Z,15.13
2022-09-26T19:22:54.929Z,15.12
2022-09-26T19:25:52.375Z,15.10
2022-09-26T19:28:49.866Z,15.09
2022-09-26T19:31:48.222Z,15.04
2022-09-26T19:34:45.783Z,15.00
2022-09-26T19:37:43.219Z,14.97
2022-09-26T19:40:42.756Z,14.95
2022-09-26T19:43:43.816Z,14.94
2022-09-26T19:46:41.349Z,14.91
2022-09-26T19:49:41.207Z,14.86
2022-09-26T19:52:38.748Z,14.80
2022-09-26T19:55:36.442Z,14.75
2022-09-26T19:58:33.973Z,14.71
2022-09-26T20:01:31.516Z,14.68
2022-09-26T20:04:29.657Z,14.63
2022-09-26T20:07:27.829Z,14.58
2022-09-26T20:10:26.664Z,14.51
2022-09-26T20:13:24.343Z,14.42
2022-09-26T20:16:22.637Z,14.35
2022-09-26T20:19:20.091Z,14.28
2022-09-26T20:22:17.559Z,14.20
2022-09-26T20:25:15.638Z,14.14
2022-09-26T20:28:13.058Z,14.07
2022-09-26T20:31:10.540Z,14.02
2022-09-26T20:34:08.097Z,13.97
2022-09-26T20:37:05.642Z,13.91
2022-09-26T20:40:03.061Z,13.87
2022-09-26T20:43:01.706Z,13.82
2022-09-26T20:45:59.306Z,13.75
2022-09-26T20:48:56.812Z,13.69
2022-09-26T20:51:54.661Z,13.61
2022-09-26T20:54:52.415Z,13.54
2022-09-26T20:57:50.870Z,13.48
2022-09-26T21:00:48.339Z,13.44
2022-09-26T21:03:45.791Z,13.38
2022-09-26T21:06:43.342Z,13.34
2022-09-26T21:09:41.968Z,13.30
2022-09-26T21:12:41.337Z,13.24
2022-09-26T21:15:41.566Z,13.19
2022-09-26T21:18:39.007Z,13.13
2022-09-26T21:21:40.207Z,13.08
2022-09-26T21:24:38.858Z,13.06
2022-09-26T21:27:36.307Z,13.00
2022-09-26T21:30:33.788Z,12.97
2022-09-26T21:33:31.315Z,12.95
2022-09-26T21:36:32.688Z,12.94
2022-09-26T21:39:32.148Z,12.92
2022-09-26T21:42:29.596Z,12.92
2022-09-26T21:45:27.909Z,12.91
2022-09-26T21:48:25.798Z,12.90
2022-09-26T21:51:23.195Z,12.87
2022-09-26T21:54:21.025Z,12.84
2022-09-26T21:57:18.453Z,12.83
2022-09-26T22:00:15.999Z,12.83
2022-09-26T22:03:13.401Z,12.82
2022-09-26T22:06:10.827Z,12.81
2022-09-26T22:09:08.297Z,12.79
2022-09-26T22:12:05.754Z,12.77
2022-09-26T22:15:03.197Z,12.75
2022-09-26T22:18:01.193Z,12.74
2022-09-26T22:20:58.637Z,12.71
2022-09-26T22:23:56.060Z,12.69
2022-09-26T22:26:53.511Z,12.68
2022-09-26T22:29:50.984Z,12.67
2022-09-26T22:32:48.484Z,12.65
2022-09-26T22:35:45.916Z,12.65
2022-09-26T22:38:43.380Z,12.64
2022-09-26T22:41:40.831Z,12.64
2022-09-26T22:44:38.276Z,12.64
2022-09-26T22:47:35.716Z,12.65
2022-09-26T22:50:33.134Z,12.66
2022-09-26T22:53:30.567Z,12.65
2022-09-26T22:56:27.981Z,12.63
2022-09-26T22:59:25.399Z,12.63
2022-09-26T23:02:23.241Z,12.61
2022-09-26T23:05:20.686Z,12.58
2022-09-26T23:08:18.115Z,12.56
2022-09-26T23:11:16.811Z,12.53
2022-09-26T23:14:14.231Z,12.50
2022-09-26T23:17:11.890Z,12.44
2022-09-26T23:20:09.419Z,12.40
2022-09-26T23:23:06.849Z,12.38
2022-09-26T23:26:04.267Z,12.35
2022-09-26T23:29:01.682Z,12.30
2022-09-26T23:31:59.118Z,12.25
2022-09-26T23:34:56.571Z,12.20
2022-09-26T23:37:53.987Z,12.14
2022-09-26T23:40:51.457Z,12.07
2022-09-26T23:43:48.911Z,12.02
2022-09-26T23:46:46.376Z,11.96
2022-09-26T23:49:43.799Z,11.92
2022-09-26T23:52:41.646Z,11.89
2022-09-26T23:55:39.064Z,11.85
2022-09-26T23:58:37.322Z,11.82
